createdAt,value
2018-11-03T00:02:02.051Z,5.40
2018-11-03T00:04:30.864Z,5.37
2018-11-03T00:06:59.696Z,6.65
2018-11-03T00:09:28.477Z,3.58
2018-11-03T00:11:57.274Z,4.12
2018-11-03T00:14:25.996Z,4.53
2018-11-03T00:16:54.765Z,3.12
2018-11-03T00:19:23.569Z,4.55
2018-11-03T00:21:52.389Z,5.08
2018-11-03T00:24:21.158Z,4.70
2018-11-03T00:26:49.944Z,4.15
2018-11-03T00:29:18.700Z,4.50
2018-11-03T00:31:47.551Z,6.20
2018-11-03T00:34:16.337Z,4.30
2018-11-03T00:36:45.147Z,4.42
2018-11-03T00:39:13.885Z,4.67
2018-11-03T00:41:42.821Z,4.70
2018-11-03T00:44:11.638Z,4.03
2018-11-03T00:46:40.563Z,4.15
2018-11-03T00:49:09.278Z,5.53
2018-11-03T00:51:38.085Z,3.12
2018-11-03T00:54:06.922Z,5.08
2018-11-03T00:56:35.674Z,2.95
2018-11-03T00:59:04.612Z,5.25
2018-11-03T01:01:33.797Z,4.78
2018-11-03T01:04:02.610Z,4.80
2018-11-03T01:06:31.376Z,2.52
2018-11-03T01:09:00.131Z,2.65
2018-11-03T01:11:28.910Z,2.98
2018-11-03T01:13:57.666Z,3.15
2018-11-03T01:16:26.508Z,4.65
2018-11-03T01:18:55.322Z,2.77
2018-11-03T01:21:24.087Z,2.80
2018-11-03T01:23:52.869Z,2.45
2018-11-03T01:26:21.696Z,2.67
2018-11-03T01:28:50.507Z,3.75
2018-11-03T01:31:19.241Z,2.60
2018-11-03T01:33:48.041Z,2.25
2018-11-03T01:36:16.863Z,4.47
2018-11-03T01:38:45.654Z,3.98
2018-11-03T01:41:14.424Z,4.72
2018-11-03T01:43:43.173Z,3.92
2018-11-03T01:46:11.958Z,3.50
2018-11-03T01:48:40.818Z,2.15
2018-11-03T01:51:09.553Z,3.83
2018-11-03T01:53:38.304Z,2.80
2018-11-03T01:56:07.311Z,4.05
2018-11-03T01:58:36.171Z,2.75
2018-11-03T02:01:05.327Z,3.08
2018-11-03T02:03:34.140Z,3.45
2018-11-03T02:06:03.013Z,2.95
2018-11-03T02:08:31.815Z,4.37
2018-11-03T02:11:00.638Z,2.12
2018-11-03T02:13:29.574Z,3.62
2018-11-03T02:15:58.307Z,2.98
2018-11-03T02:18:27.103Z,4.60
2018-11-03T02:20:55.861Z,2.45
2018-11-03T02:23:24.663Z,3.72
2018-11-03T02:25:53.488Z,2.33
2018-11-03T02:28:22.345Z,2.72
2018-11-03T02:30:51.133Z,2.52
2018-11-03T02:33:19.923Z,2.08
2018-11-03T02:35:48.693Z,2.00
2018-11-03T02:38:17.513Z,2.92
2018-11-03T02:40:46.256Z,2.45
2018-11-03T02:43:15.002Z,3.12
2018-11-03T02:45:43.870Z,4.10
2018-11-03T02:48:12.671Z,2.50
2018-11-03T02:50:42.075Z,3.50
2018-11-03T02:53:11.107Z,3.42
2018-11-03T02:55:39.843Z,2.47
2018-11-03T02:58:08.649Z,1.67
2018-11-03T03:00:37.463Z,2.33
2018-11-03T03:03:06.285Z,2.25
2018-11-03T03:05:35.068Z,2.45
2018-11-03T03:08:04.100Z,2.45
2018-11-03T03:10:32.816Z,2.00
2018-11-03T03:13:01.539Z,2.47
2018-11-03T03:15:30.773Z,2.12
2018-11-03T03:17:59.576Z,3.00
2018-11-03T03:20:28.302Z,4.92
2018-11-03T03:22:57.067Z,2.67
2018-11-03T03:25:25.842Z,2.40
2018-11-03T03:27:54.669Z,2.33
2018-11-03T03:30:23.429Z,1.60
2018-11-03T03:32:52.206Z,1.45
2018-11-03T03:35:20.974Z,1.77
2018-11-03T03:37:49.790Z,2.58
2018-11-03T03:40:18.634Z,2.12
2018-11-03T03:42:47.407Z,2.00
2018-11-03T03:45:16.261Z,1.55
2018-11-03T03:47:44.996Z,2.70
2018-11-03T03:50:13.812Z,2.30
2018-11-03T03:52:42.529Z,1.82
2018-11-03T03:55:11.387Z,1.52
2018-11-03T03:57:40.127Z,1.75
2018-11-03T04:00:10.367Z,1.20
2018-11-03T04:02:39.267Z,2.92
2018-11-03T04:05:08.569Z,1.55
2018-11-03T04:07:37.392Z,2.35
2018-11-03T04:10:07.481Z,1.52
2018-11-03T04:12:36.219Z,2.25
2018-11-03T04:15:05.812Z,1.45
2018-11-03T04:17:34.512Z,1.25
2018-11-03T04:20:03.407Z,1.47
2018-11-03T04:22:32.146Z,1.30
2018-11-03T04:25:00.894Z,1.87
2018-11-03T04:27:29.791Z,1.70
2018-11-03T04:29:58.863Z,1.47
2018-11-03T04:32:27.632Z,2.33
2018-11-03T04:34:56.558Z,1.32
2018-11-03T04:37:25.367Z,0.90
2018-11-03T04:39:54.185Z,2.00
2018-11-03T04:42:22.983Z,2.52
2018-11-03T04:44:51.757Z,1.10
2018-11-03T04:47:20.617Z,1.20
2018-11-03T04:49:49.364Z,1.00
2018-11-03T04:52:18.141Z,2.35
2018-11-03T04:54:46.914Z,3.45
2018-11-03T04:57:15.803Z,3.35
2018-11-03T04:59:44.645Z,1.67
2018-11-03T05:02:13.689Z,1.50
2018-11-03T05:04:42.423Z,1.22
2018-11-03T05:07:11.128Z,1.25
2018-11-03T05:09:39.880Z,0.90
2018-11-03T05:12:08.673Z,1.90
2018-11-03T05:14:37.457Z,1.60
2018-11-03T05:17:06.708Z,1.65
2018-11-03T05:19:35.520Z,0.88
2018-11-03T05:22:04.437Z,2.92
2018-11-03T05:24:33.151Z,0.90
2018-11-03T05:27:01.903Z,1.52
2018-11-03T05:29:30.613Z,1.10
2018-11-03T05:31:59.425Z,2.67
2018-11-03T05:34:28.137Z,2.08
2018-11-03T05:36:56.895Z,2.10
2018-11-03T05:39:25.656Z,3.87
2018-11-03T05:41:54.545Z,2.90
2018-11-03T05:44:23.267Z,1.95
2018-11-03T05:46:52.119Z,2.62
2018-11-03T05:49:20.929Z,2.27
2018-11-03T05:51:49.714Z,1.82
2018-11-03T05:54:18.527Z,1.98
2018-11-03T05:56:47.260Z,3.17
2018-11-03T05:59:16.025Z,4.37
2018-11-03T06:01:44.733Z,2.80
2018-11-03T06:04:13.498Z,4.10
2018-11-03T06:06:42.271Z,2.25
2018-11-03T06:09:11.621Z,4.58
2018-11-03T06:11:40.369Z,2.27
2018-11-03T06:14:09.103Z,1.17
2018-11-03T06:16:37.904Z,2.08
2018-11-03T06:19:06.778Z,3.00
2018-11-03T06:21:35.591Z,1.12
2018-11-03T06:24:04.442Z,2.87
2018-11-03T06:26:33.200Z,2.40
2018-11-03T06:29:02.020Z,2.55
2018-11-03T06:31:30.749Z,3.05
2018-11-03T06:33:59.584Z,2.15
2018-11-03T06:36:28.333Z,3.00
2018-11-03T06:38:57.369Z,3.45
2018-11-03T06:41:26.284Z,2.65
2018-11-03T06:43:55.073Z,2.33
2018-11-03T06:46:23.843Z,2.08
2018-11-03T06:48:52.650Z,4.20
2018-11-03T06:51:21.409Z,1.47
2018-11-03T06:53:50.265Z,2.25
2018-11-03T06:56:19.031Z,3.30
2018-11-03T06:58:47.774Z,1.90
2018-11-03T07:01:16.489Z,2.95
2018-11-03T07:03:45.321Z,3.50
2018-11-03T07:06:14.087Z,3.15
2018-11-03T07:08:42.810Z,1.25
2018-11-03T07:11:11.652Z,1.50
2018-11-03T07:13:40.401Z,3.17
2018-11-03T07:16:09.260Z,3.45
2018-11-03T07:18:38.011Z,2.22
2018-11-03T07:21:06.746Z,2.55
2018-11-03T07:23:35.535Z,2.02
2018-11-03T07:26:05.701Z,1.50
2018-11-03T07:28:34.726Z,1.77
2018-11-03T07:31:03.722Z,1.92
2018-11-03T07:33:32.449Z,1.42
2018-11-03T07:36:01.290Z,2.10
2018-11-03T07:38:30.072Z,2.37
2018-11-03T07:40:58.853Z,3.02
2018-11-03T07:43:27.647Z,1.47
2018-11-03T07:45:56.526Z,1.50
2018-11-03T07:48:25.293Z,1.85
2018-11-03T07:50:54.041Z,1.90
2018-11-03T07:53:22.769Z,1.37
2018-11-03T07:55:51.624Z,5.75
2018-11-03T07:58:20.443Z,1.00
2018-11-03T08:00:49.349Z,1.42
2018-11-03T08:03:18.050Z,2.85
2018-11-03T08:05:46.814Z,1.37
2018-11-03T08:08:15.565Z,1.82
2018-11-03T08:10:44.347Z,1.65
2018-11-03T08:13:13.122Z,1.30
2018-11-03T08:15:42.278Z,1.82
2018-11-03T08:18:10.980Z,1.95
2018-11-03T08:20:39.726Z,3.08
2018-11-03T08:23:08.473Z,1.67
2018-11-03T08:25:37.242Z,1.65
2018-11-03T08:28:06.130Z,1.50
2018-11-03T08:30:34.964Z,1.32
2018-11-03T08:33:03.774Z,2.22
2018-11-03T08:35:32.597Z,3.52
2018-11-03T08:38:01.390Z,2.40
2018-11-03T08:40:30.130Z,2.35
2018-11-03T08:42:58.955Z,1.70
2018-11-03T08:45:27.716Z,2.08
2018-11-03T08:47:56.489Z,1.80
2018-11-03T08:50:25.238Z,1.87
2018-11-03T08:52:54.021Z,1.77
2018-11-03T08:55:22.797Z,3.50
2018-11-03T08:57:51.594Z,1.65
2018-11-03T09:00:20.497Z,2.62
2018-11-03T09:02:49.314Z,2.02
2018-11-03T09:05:18.171Z,1.20
2018-11-03T09:07:47.001Z,3.33
2018-11-03T09:10:16.229Z,2.92
2018-11-03T09:12:45.123Z,1.30
2018-11-03T09:15:14.675Z,3.47
2018-11-03T09:17:44.292Z,1.60
2018-11-03T09:20:13.920Z,1.75
2018-11-03T09:22:42.830Z,1.80
2018-11-03T09:25:14.892Z,1.25
2018-11-03T09:27:44.337Z,1.60
2018-11-03T09:30:15.745Z,2.55
2018-11-03T09:32:44.566Z,1.72
2018-11-03T09:35:15.047Z,2.35
2018-11-03T09:37:43.822Z,2.02
2018-11-03T09:40:15.434Z,1.17
2018-11-03T09:42:45.274Z,1.50
2018-11-03T09:45:14.428Z,1.00
2018-11-03T09:47:43.814Z,0.85
2018-11-03T09:50:14.103Z,1.70
2018-11-03T09:52:43.246Z,3.02
2018-11-03T09:55:14.462Z,1.00
2018-11-03T09:57:43.314Z,1.75
2018-11-03T10:00:14.648Z,1.02
2018-11-03T10:02:43.506Z,1.70
2018-11-03T10:05:13.441Z,1.10
2018-11-03T10:07:42.292Z,0.93
2018-11-03T10:10:13.991Z,1.60
2018-11-03T10:12:42.971Z,1.55
2018-11-03T10:15:12.827Z,5.40
2018-11-03T10:17:41.632Z,4.30
2018-11-03T10:20:10.886Z,2.52
2018-11-03T10:22:39.792Z,2.30
2018-11-03T10:25:11.133Z,2.22
2018-11-03T10:27:40.729Z,2.30
2018-11-03T10:30:10.739Z,4.30
2018-11-03T10:32:40.161Z,2.58
2018-11-03T10:35:11.057Z,3.55
2018-11-03T10:37:39.986Z,1.90
2018-11-03T10:40:10.954Z,1.95
2018-11-03T10:42:39.979Z,4.00
2018-11-03T10:45:10.710Z,1.95
2018-11-03T10:47:39.967Z,2.05
2018-11-03T10:50:11.275Z,5.10
2018-11-03T10:52:41.056Z,2.17
2018-11-03T10:55:11.071Z,2.72
2018-11-03T10:57:39.853Z,1.72
2018-11-03T11:00:15.755Z,2.75
2018-11-03T11:02:50.030Z,2.77
2018-11-03T11:05:24.164Z,1.85
2018-11-03T11:07:58.031Z,1.20
2018-11-03T11:10:32.171Z,1.62
2018-11-03T11:13:04.547Z,2.62
2018-11-03T11:15:33.447Z,1.12
2018-11-03T11:18:02.225Z,1.92
2018-11-03T11:20:31.056Z,1.27
2018-11-03T11:22:59.837Z,1.32
2018-11-03T11:25:28.704Z,1.00
2018-11-03T11:27:57.678Z,1.20
2018-11-03T11:30:30.566Z,1.65
2018-11-03T11:32:59.340Z,0.70
2018-11-03T11:35:28.219Z,2.42
2018-11-03T11:37:57.108Z,1.25
2018-11-03T11:40:26.297Z,3.52
2018-11-03T11:42:55.726Z,2.50
2018-11-03T11:45:24.518Z,3.60
2018-11-03T11:47:53.277Z,1.87
2018-11-03T11:50:22.096Z,1.65
2018-11-03T11:52:50.898Z,1.98
2018-11-03T11:55:19.843Z,1.40
2018-11-03T11:57:49.923Z,1.70
2018-11-03T12:00:18.741Z,0.65
2018-11-03T12:02:47.605Z,1.12
2018-11-03T12:05:16.392Z,1.05
2018-11-03T12:07:45.303Z,1.15
2018-11-03T12:10:14.459Z,1.77
2018-11-03T12:12:43.317Z,1.80
2018-11-03T12:15:12.219Z,0.72
2018-11-03T12:17:41.061Z,0.60
2018-11-03T12:20:10.141Z,0.62
2018-11-03T12:22:39.521Z,0.80
2018-11-03T12:25:09.569Z,0.82
2018-11-03T12:27:38.514Z,1.65
2018-11-03T12:30:11.825Z,1.17
2018-11-03T12:32:41.454Z,0.90
2018-11-03T12:35:10.442Z,1.37
2018-11-03T12:37:39.733Z,1.40
2018-11-03T12:40:10.673Z,1.70
2018-11-03T12:42:39.491Z,4.28
2018-11-03T12:45:08.883Z,1.75
2018-11-03T12:47:37.855Z,3.62
2018-11-03T12:50:08.297Z,2.20
2018-11-03T12:52:37.075Z,1.85
2018-11-03T12:55:07.274Z,2.75
2018-11-03T12:57:36.112Z,2.85
2018-11-03T13:00:05.302Z,1.98
2018-11-03T13:02:34.194Z,4.12
2018-11-03T13:05:03.045Z,3.60
2018-11-03T13:07:31.808Z,5.65
2018-11-03T13:10:00.651Z,7.37
2018-11-03T13:12:29.466Z,5.37
2018-11-03T13:14:58.493Z,15.85
2018-11-03T13:17:27.527Z,9.80
2018-11-03T13:19:56.367Z,8.43
2018-11-03T13:22:25.262Z,12.03
2018-11-03T13:24:54.312Z,8.50
2018-11-03T13:27:23.423Z,9.28
2018-11-03T13:29:52.457Z,8.20
2018-11-03T13:32:21.321Z,9.13
2018-11-03T13:34:50.408Z,9.03
2018-11-03T13:37:19.456Z,7.40
2018-11-03T13:39:48.251Z,6.65
2018-11-03T13:42:17.120Z,7.05
2018-11-03T13:44:46.290Z,7.55
2018-11-03T13:47:15.352Z,8.55
2018-11-03T13:49:44.414Z,4.92
2018-11-03T13:52:13.780Z,4.35
2018-11-03T13:54:42.761Z,4.75
2018-11-03T13:57:11.751Z,8.08
2018-11-03T13:59:40.447Z,7.47
2018-11-03T14:02:10.027Z,6.30
2018-11-03T14:04:38.858Z,8.20
2018-11-03T14:07:07.773Z,6.55
2018-11-03T14:09:36.624Z,5.78
2018-11-03T14:12:06.413Z,6.75
2018-11-03T14:14:35.280Z,5.03
2018-11-03T14:17:04.293Z,4.22
2018-11-03T14:19:33.385Z,4.65
2018-11-03T14:22:02.618Z,4.30
2018-11-03T14:24:32.425Z,4.90
2018-11-03T14:27:01.709Z,5.95
2018-11-03T14:29:30.979Z,5.40
2018-11-03T14:32:00.245Z,5.78
2018-11-03T14:34:29.647Z,3.72
2018-11-03T14:36:58.563Z,5.92
2018-11-03T14:39:27.669Z,3.33
2018-11-03T14:41:56.957Z,3.70
2018-11-03T14:44:26.194Z,2.80
2018-11-03T14:46:55.523Z,3.33
2018-11-03T14:49:24.401Z,2.27
2018-11-03T14:51:53.355Z,5.30
2018-11-03T14:54:22.178Z,3.37
2018-11-03T14:56:50.978Z,3.75
2018-11-03T14:59:19.856Z,3.60
2018-11-03T15:01:48.632Z,2.80
2018-11-03T15:04:17.507Z,2.33
2018-11-03T15:06:46.504Z,1.72
2018-11-03T15:09:15.537Z,2.25
2018-11-03T15:11:44.493Z,3.00
2018-11-03T15:14:13.526Z,3.12
2018-11-03T15:16:42.277Z,2.30
2018-11-03T15:19:11.619Z,2.72
2018-11-03T15:21:40.708Z,2.40
2018-11-03T15:24:09.566Z,2.62
2018-11-03T15:26:38.337Z,1.92
2018-11-03T15:29:07.148Z,1.62
2018-11-03T15:31:35.899Z,2.00
2018-11-03T15:34:04.905Z,2.12
2018-11-03T15:36:33.936Z,1.20
2018-11-03T15:39:03.199Z,2.27
2018-11-03T15:41:31.975Z,2.35
2018-11-03T15:44:00.859Z,2.37
2018-11-03T15:46:29.896Z,2.08
2018-11-03T15:48:58.641Z,2.08
2018-11-03T15:51:27.737Z,2.42
2018-11-03T15:53:56.530Z,1.72
2018-11-03T15:56:25.600Z,1.82
2018-11-03T15:58:54.387Z,2.35
2018-11-03T16:01:23.720Z,1.98
2018-11-03T16:03:52.534Z,2.12
2018-11-03T16:06:21.298Z,2.72
2018-11-03T16:08:50.094Z,2.37
2018-11-03T16:11:19.169Z,1.77
2018-11-03T16:13:48.273Z,6.65
2018-11-03T16:16:17.288Z,2.75
2018-11-03T16:18:46.091Z,2.25
2018-11-03T16:21:15.080Z,3.33
2018-11-03T16:23:44.649Z,2.27
2018-11-03T16:26:13.849Z,2.20
2018-11-03T16:28:42.646Z,3.17
2018-11-03T16:31:11.432Z,2.12
2018-11-03T16:33:41.186Z,2.47
2018-11-03T16:36:10.495Z,2.25
2018-11-03T16:38:39.612Z,4.85
2018-11-03T16:41:08.550Z,3.37
2018-11-03T16:43:37.691Z,3.47
2018-11-03T16:46:06.823Z,2.10
2018-11-03T16:48:35.983Z,1.65
2018-11-03T16:51:05.073Z,2.92
2018-11-03T16:53:33.952Z,2.42
2018-11-03T16:56:02.752Z,2.50
2018-11-03T16:58:31.727Z,3.47
2018-11-03T17:01:00.981Z,2.92
2018-11-03T17:03:29.978Z,2.10
2018-11-03T17:05:59.140Z,2.85
2018-11-03T17:08:28.187Z,4.03
2018-11-03T17:10:57.209Z,2.37
2018-11-03T17:13:26.234Z,2.95
2018-11-03T17:15:55.163Z,2.08
2018-11-03T17:18:24.221Z,3.30
2018-11-03T17:20:53.366Z,2.50
2018-11-03T17:23:23.180Z,2.50
2018-11-03T17:25:52.328Z,2.08
2018-11-03T17:28:21.214Z,2.83
2018-11-03T17:30:49.986Z,3.42
2018-11-03T17:33:18.751Z,2.83
2018-11-03T17:35:47.523Z,2.72
2018-11-03T17:38:16.298Z,5.33
2018-11-03T17:40:45.126Z,3.62
2018-11-03T17:43:14.000Z,5.30
2018-11-03T17:45:42.786Z,2.90
2018-11-03T17:48:11.559Z,3.45
2018-11-03T17:50:40.352Z,3.30
2018-11-03T17:53:09.175Z,2.37
2018-11-03T17:55:37.964Z,5.03
2018-11-03T17:58:06.765Z,1.87
2018-11-03T18:00:35.653Z,2.87
2018-11-03T18:03:04.711Z,2.35
2018-11-03T18:05:33.578Z,2.62
2018-11-03T18:08:02.620Z,2.02
2018-11-03T18:10:31.510Z,2.85
2018-11-03T18:13:00.301Z,3.17
2018-11-03T18:15:29.142Z,2.08
2018-11-03T18:17:58.058Z,1.92
2018-11-03T18:20:27.282Z,2.42
2018-11-03T18:22:56.498Z,3.27
2018-11-03T18:25:25.673Z,3.12
2018-11-03T18:27:54.835Z,2.70
2018-11-03T18:30:24.126Z,3.30
2018-11-03T18:32:53.493Z,2.12
2018-11-03T18:35:22.746Z,2.00
2018-11-03T18:37:51.626Z,2.02
2018-11-03T18:40:21.026Z,2.15
2018-11-03T18:42:50.303Z,2.77
2018-11-03T18:45:19.226Z,2.60
2018-11-03T18:47:48.472Z,2.20
2018-11-03T18:50:17.689Z,2.42
2018-11-03T18:52:46.848Z,3.12
2018-11-03T18:55:16.245Z,1.98
2018-11-03T18:57:45.499Z,2.33
2018-11-03T19:00:14.835Z,2.10
2018-11-03T19:02:44.170Z,1.90
2018-11-03T19:05:13.328Z,2.10
2018-11-03T19:07:42.666Z,2.02
2018-11-03T19:10:11.925Z,1.98
2018-11-03T19:12:40.883Z,2.67
2018-11-03T19:15:10.830Z,2.12
2018-11-03T19:17:39.984Z,1.85
2018-11-03T19:20:10.820Z,3.08
2018-11-03T19:22:39.882Z,1.50
2018-11-03T19:25:10.339Z,2.87
2018-11-03T19:27:39.641Z,1.70
2018-11-03T19:30:10.597Z,3.75
2018-11-03T19:32:40.471Z,1.35
2018-11-03T19:35:09.868Z,2.65
2018-11-03T19:37:39.969Z,2.15
2018-11-03T19:40:11.061Z,4.08
2018-11-03T19:42:41.184Z,1.45
2018-11-03T19:45:10.932Z,1.57
2018-11-03T19:47:40.211Z,1.77
2018-11-03T19:50:10.183Z,2.75
2018-11-03T19:52:39.135Z,1.35
2018-11-03T19:55:08.610Z,2.45
2018-11-03T19:57:37.544Z,1.40
2018-11-03T20:00:12.773Z,1.47
2018-11-03T20:02:42.223Z,2.02
2018-11-03T20:05:12.155Z,2.33
2018-11-03T20:07:42.434Z,2.40
2018-11-03T20:10:12.077Z,2.47
2018-11-03T20:12:41.132Z,1.40
2018-11-03T20:15:11.196Z,1.37
2018-11-03T20:17:40.551Z,3.40
2018-11-03T20:20:11.251Z,2.40
2018-11-03T20:22:40.174Z,2.12
2018-11-03T20:25:10.568Z,1.90
2018-11-03T20:27:39.829Z,1.35
2018-11-03T20:30:11.779Z,2.27
2018-11-03T20:32:41.014Z,2.22
2018-11-03T20:35:10.188Z,3.00
2018-11-03T20:37:39.664Z,1.67
2018-11-03T20:40:10.141Z,1.80
2018-11-03T20:42:39.023Z,3.08
2018-11-03T20:45:09.313Z,3.27
2018-11-03T20:47:38.616Z,3.77
2018-11-03T20:50:09.703Z,1.55
2018-11-03T20:52:38.646Z,2.20
2018-11-03T20:55:08.096Z,2.27
2018-11-03T20:57:37.044Z,2.02
2018-11-03T21:00:08.376Z,2.67
2018-11-03T21:02:37.529Z,2.75
2018-11-03T21:05:07.401Z,1.57
2018-11-03T21:07:36.367Z,2.95
2018-11-03T21:10:06.970Z,1.67
2018-11-03T21:12:35.898Z,1.80
2018-11-03T21:15:04.962Z,1.42
2018-11-03T21:17:33.820Z,1.40
2018-11-03T21:20:04.013Z,1.75
2018-11-03T21:22:33.201Z,1.87
2018-11-03T21:25:02.392Z,2.12
2018-11-03T21:27:31.419Z,2.17
2018-11-03T21:30:00.705Z,2.47
2018-11-03T21:32:29.961Z,1.82
2018-11-03T21:34:59.316Z,1.95
2018-11-03T21:37:28.228Z,2.55
2018-11-03T21:39:57.100Z,2.27
2018-11-03T21:42:25.969Z,2.80
2018-11-03T21:44:54.832Z,3.00
2018-11-03T21:47:24.117Z,1.80
2018-11-03T21:49:52.997Z,2.40
2018-11-03T21:52:21.923Z,2.33
2018-11-03T21:54:51.104Z,1.80
2018-11-03T21:57:20.091Z,2.20
2018-11-03T21:59:49.617Z,2.02
2018-11-03T22:02:18.871Z,1.95
2018-11-03T22:04:48.054Z,2.15
2018-11-03T22:07:16.904Z,2.22
2018-11-03T22:09:45.728Z,2.08
2018-11-03T22:12:14.519Z,3.00
2018-11-03T22:14:43.258Z,1.50
2018-11-03T22:17:12.077Z,1.65
2018-11-03T22:19:40.896Z,1.77
2018-11-03T22:22:09.854Z,1.82
2018-11-03T22:24:38.729Z,1.80
2018-11-03T22:27:07.508Z,1.87
2018-11-03T22:29:36.258Z,2.30
2018-11-03T22:32:05.443Z,1.87
2018-11-03T22:34:34.249Z,3.33
2018-11-03T22:37:03.066Z,1.77
2018-11-03T22:39:31.883Z,2.92
2018-11-03T22:42:00.718Z,1.95
2018-11-03T22:44:29.536Z,2.45
2018-11-03T22:46:58.340Z,1.77
2018-11-03T22:49:27.104Z,1.50
2018-11-03T22:51:55.968Z,2.02
2018-11-03T22:54:24.734Z,2.12
2018-11-03T22:56:53.654Z,1.65
2018-11-03T22:59:22.416Z,1.87
2018-11-03T23:01:51.165Z,1.27
2018-11-03T23:04:19.907Z,2.98
2018-11-03T23:06:48.774Z,3.85
2018-11-03T23:09:17.511Z,2.35
2018-11-03T23:11:46.304Z,2.27
2018-11-03T23:14:15.204Z,4.10
2018-11-03T23:16:44.028Z,3.65
2018-11-03T23:19:12.840Z,3.25
2018-11-03T23:21:41.647Z,3.85
2018-11-03T23:24:10.503Z,3.47
2018-11-03T23:26:39.430Z,2.27
2018-11-03T23:29:08.248Z,2.17
2018-11-03T23:31:37.014Z,2.10
2018-11-03T23:34:05.900Z,6.60
2018-11-03T23:36:34.770Z,4.08
2018-11-03T23:39:03.773Z,2.30
2018-11-03T23:41:32.631Z,4.03
2018-11-03T23:44:01.521Z,3.58
2018-11-03T23:46:30.279Z,2.20
2018-11-03T23:48:59.117Z,3.02
2018-11-03T23:51:27.819Z,1.92
2018-11-03T23:53:56.602Z,1.98
2018-11-03T23:56:25.393Z,3.80
2018-11-03T23:58:54.117Z,2.10
